Time;durP1;ratioP1;P1;durP2;ratioP2;P2;SDS_P1;SDS_P2;PMS_P1;PMS_P2;Temp;Humidity;BMP_temperature;BMP_pressure;BME280_temperature;BME280_humidity;BME280_pressure;Samples;Min_cycle;Max_cycle;Signal;HPM_P1;HPM_P2
2022/11/10 00:00:39;;;;;;;1999.90;999.90;;;10.00;99.90;;;;;;5011716;28;20038;-83
2022/11/10 00:03:06;;;;;;;1999.90;999.90;;;10.00;99.90;;;;;;5011841;28;20026;-83
2022/11/10 00:05:32;;;;;;;1999.90;999.90;;;10.00;99.90;;;;;;5011964;28;20113;-83
2022/11/10 00:08:06;;;;;;;1999.90;999.90;;;10.00;99.90;;;;;;4994479;28;20108;-83
2022/11/10 00:10:32;;;;;;;1999.90;999.90;;;10.00;99.90;;;;;;5011791;28;20033;-83
2022/11/10 00:13:02;;;;;;;1999.90;999.90;;;10.10;99.90;;;;;;5011499;28;20045;-83
2022/11/10 00:18:12;;;;;;;1999.90;999.90;;;10.00;99.90;;;;;;5015799;28;20516;-83
2022/11/10 00:20:37;;;;;;;1999.90;999.90;;;10.00;99.90;;;;;;5015164;28;20029;-83
2022/11/10 00:23:03;;;;;;;1999.90;999.90;;;10.00;99.90;;;;;;5014686;28;20464;-83
2022/11/10 00:25:31;;;;;;;1999.90;999.90;;;10.00;99.90;;;;;;5014903;28;20489;-83
2022/11/10 00:27:58;;;;;;;1999.90;999.90;;;9.90;99.90;;;;;;5015287;28;20021;-83
2022/11/10 00:30:24;;;;;;;1999.90;999.90;;;9.90;99.90;;;;;;5015166;28;20084;-83
2022/11/10 00:32:50;;;;;;;1999.90;999.90;;;9.80;99.90;;;;;;5014741;28;20026;-83
2022/11/10 00:35:16;;;;;;;1999.90;999.90;;;9.80;99.90;;;;;;5014955;28;20084;-83
2022/11/10 00:37:41;;;;;;;1999.90;999.90;;;9.80;99.90;;;;;;5014740;28;20022;-83
2022/11/10 00:40:07;;;;;;;1999.90;999.90;;;9.80;99.90;;;;;;4997230;28;20045;-83
2022/11/10 00:42:33;;;;;;;1999.90;999.90;;;9.70;99.90;;;;;;4997376;28;20449;-83
2022/11/10 00:44:58;;;;;;;1999.90;999.90;;;9.70;99.90;;;;;;4997004;28;20026;-83
2022/11/10 00:47:24;;;;;;;1999.90;999.90;;;9.70;99.90;;;;;;5014787;28;20033;-83
2022/11/10 00:49:50;;;;;;;1999.90;999.90;;;9.60;99.90;;;;;;5014657;28;20418;-83
2022/11/10 00:52:15;;;;;;;1999.90;999.90;;;9.60;99.90;;;;;;4997182;28;20061;-83
2022/11/10 00:54:41;;;;;;;1999.90;999.90;;;9.60;99.90;;;;;;5014317;28;20050;-83
2022/11/10 00:57:06;;;;;;;1999.90;999.90;;;9.60;99.90;;;;;;5014022;28;20030;-83
2022/11/10 00:59:32;;;;;;;1999.90;999.90;;;9.50;99.90;;;;;;5014052;28;20037;-83
2022/11/10 01:01:58;;;;;;;1999.90;999.90;;;9.50;99.90;;;;;;4997166;28;20025;-83
2022/11/10 01:04:23;;;;;;;1999.90;999.90;;;9.50;99.90;;;;;;5014663;28;20378;-83
2022/11/10 01:06:50;;;;;;;1999.90;999.90;;;9.50;99.90;;;;;;4996558;28;20500;-83
2022/11/10 01:09:16;;;;;;;1999.90;999.90;;;9.50;99.90;;;;;;5014242;28;20018;-83
2022/11/10 01:11:41;;;;;;;1999.90;999.90;;;9.50;99.90;;;;;;5014234;28;20030;-83
2022/11/10 01:14:07;;;;;;;1999.90;999.90;;;9.50;99.90;;;;;;5014213;28;20026;-83
2022/11/10 01:16:33;;;;;;;1999.90;999.90;;;9.50;99.90;;;;;;5014402;28;20030;-83
2022/11/10 01:19:01;;;;;;;1999.90;999.90;;;9.50;99.90;;;;;;5014041;28;20059;-83
2022/11/10 01:21:28;;;;;;;1999.90;999.90;;;9.50;99.90;;;;;;5013798;28;20049;-83
2022/11/10 01:23:54;;;;;;;1999.90;999.90;;;9.50;99.90;;;;;;5013276;28;20148;-83
2022/11/10 01:26:20;;;;;;;1999.90;999.90;;;9.50;99.90;;;;;;5013986;28;20044;-83
2022/11/10 01:28:46;;;;;;;1999.90;999.90;;;9.50;99.90;;;;;;4996131;28;20026;-83
2022/11/10 01:31:17;;;;;;;1999.90;999.90;;;9.40;99.90;;;;;;4996344;28;20029;-83
2022/11/10 01:33:43;;;;;;;1999.90;999.90;;;9.40;99.90;;;;;;4994322;28;20034;-83
2022/11/10 01:36:10;;;;;;;1999.90;999.90;;;9.40;99.90;;;;;;4994721;28;20034;-83
2022/11/10 01:38:38;;;;;;;1999.90;999.90;;;9.40;99.90;;;;;;4993910;28;20034;-83
2022/11/10 01:41:06;;;;;;;1999.90;999.90;;;9.40;99.90;;;;;;4994346;28;20034;-83
2022/11/10 01:43:32;;;;;;;1999.90;999.90;;;9.30;99.90;;;;;;4996001;28;20030;-83
2022/11/10 01:46:02;;;;;;;1999.90;999.90;;;9.30;99.90;;;;;;5013793;28;20030;-83
2022/11/10 01:48:50;;;;;;;1999.90;999.90;;;9.30;99.90;;;;;;5013714;28;20033;-83
2022/11/10 01:51:31;;;;;;;1999.90;999.90;;;9.20;99.90;;;;;;5013623;28;20026;-83
2022/11/10 01:54:10;;;;;;;1999.90;999.90;;;9.20;99.90;;;;;;5013323;28;20056;-83
2022/11/10 01:56:41;;;;;;;1999.90;999.90;;;9.20;99.90;;;;;;5013408;28;20030;-83
2022/11/10 01:59:12;;;;;;;1999.90;999.90;;;9.20;99.90;;;;;;5027895;28;20124;-83
2022/11/10 02:01:38;;;;;;;1999.90;999.90;;;9.20;99.90;;;;;;5033071;28;20029;-83
2022/11/10 02:04:08;;;;;;;1999.90;999.90;;;9.20;99.90;;;;;;5033249;28;20021;-83
2022/11/10 02:06:37;;;;;;;1999.90;999.90;;;9.20;99.90;;;;;;5015050;28;20026;-83
2022/11/10 02:09:04;;;;;;;1999.90;999.90;;;9.20;99.90;;;;;;5032802;28;20021;-83
2022/11/10 02:11:30;;;;;;;1999.90;999.90;;;9.20;99.90;;;;;;5014652;28;20040;-83
2022/11/10 02:13:56;;;;;;;1999.90;999.90;;;9.20;99.90;;;;;;5032743;28;20028;-83
2022/11/10 02:16:23;;;;;;;1999.90;999.90;;;9.30;99.90;;;;;;5033117;28;20029;-83
2022/11/10 02:18:49;;;;;;;1999.90;999.90;;;9.30;99.90;;;;;;5032752;28;20558;-83
2022/11/10 02:21:19;;;;;;;1999.90;999.90;;;9.30;99.90;;;;;;5032551;28;20056;-83
2022/11/10 02:23:48;;;;;;;1999.90;999.90;;;9.40;99.90;;;;;;5032031;28;20026;-83
2022/11/10 02:26:20;;;;;;;1999.90;999.90;;;9.40;99.90;;;;;;5032132;28;20050;-83
2022/11/10 02:28:46;;;;;;;1999.90;999.90;;;9.40;99.90;;;;;;5032121;28;20041;-83
2022/11/10 02:31:12;;;;;;;1999.90;999.90;;;9.40;99.90;;;;;;5014946;28;20489;-83
2022/11/10 02:33:37;;;;;;;1999.90;999.90;;;9.40;99.90;;;;;;4994584;28;20023;-83
2022/11/10 02:36:03;;;;;;;1999.90;999.90;;;9.30;99.90;;;;;;4993381;28;20057;-83
2022/11/10 02:38:29;;;;;;;1999.90;999.90;;;9.30;99.90;;;;;;4992344;28;20028;-83
2022/11/10 02:40:55;;;;;;;1999.90;999.90;;;9.20;99.90;;;;;;4992809;28;20117;-83
2022/11/10 02:43:20;;;;;;;1999.90;999.90;;;9.10;99.90;;;;;;4993453;28;20033;-83
2022/11/10 02:45:46;;;;;;;1999.90;999.90;;;9.20;99.90;;;;;;5012670;28;20485;-83
2022/11/10 02:48:14;;;;;;;1999.90;999.90;;;9.20;99.90;;;;;;4995117;28;20461;-83
2022/11/10 02:50:39;;;;;;;1999.90;999.90;;;9.20;99.90;;;;;;5012780;28;20104;-83
2022/11/10 02:53:06;;;;;;;1999.90;999.90;;;9.20;99.90;;;;;;5012612;28;20068;-83
2022/11/10 02:55:32;;;;;;;1999.90;999.90;;;9.30;99.90;;;;;;5012224;28;20113;-83
2022/11/10 02:57:57;;;;;;;1999.90;999.90;;;9.30;99.90;;;;;;5017485;28;20029;-83
2022/11/10 03:00:23;;;;;;;1999.90;999.90;;;9.40;99.90;;;;;;5032346;28;20109;-83
2022/11/10 03:02:55;;;;;;;1999.90;999.90;;;9.40;99.90;;;;;;5032124;28;20427;-83
2022/11/10 03:05:21;;;;;;;1999.90;999.90;;;9.50;99.90;;;;;;5032204;28;20056;-83
2022/11/10 03:07:55;;;;;;;1999.90;999.90;;;9.50;99.90;;;;;;5031904;28;20057;-83
2022/11/10 03:10:21;;;;;;;1999.90;999.90;;;9.60;99.90;;;;;;5032104;28;20482;-83
2022/11/10 03:12:48;;;;;;;1999.90;999.90;;;9.60;99.90;;;;;;5031798;28;20033;-83
2022/11/10 03:15:14;;;;;;;1999.90;999.90;;;9.60;99.90;;;;;;5032367;28;20034;-81
2022/11/10 03:17:40;;;;;;;1999.90;999.90;;;9.70;99.90;;;;;;5014368;28;20032;-81
2022/11/10 03:20:06;;;;;;;1999.90;999.90;;;9.70;99.90;;;;;;5032323;28;20401;-81
2022/11/10 03:22:32;;;;;;;1999.90;999.90;;;9.70;99.90;;;;;;5016557;28;20370;-81
2022/11/10 03:24:57;;;;;;;1999.90;999.90;;;9.80;99.90;;;;;;5012053;28;20041;-81
2022/11/10 03:27:23;;;;;;;1999.90;999.90;;;9.80;99.90;;;;;;5012248;28;20025;-81
2022/11/10 03:29:49;;;;;;;1999.90;999.90;;;9.80;99.90;;;;;;5012250;28;20037;-81
2022/11/10 03:32:14;;;;;;;1999.90;999.90;;;9.80;99.90;;;;;;5004698;28;20414;-81
2022/11/10 03:34:40;;;;;;;1999.90;999.90;;;9.90;99.90;;;;;;4975153;28;20030;-81
2022/11/10 03:37:06;;;;;;;1999.90;999.90;;;9.80;99.90;;;;;;4992112;28;20082;-81
2022/11/10 03:39:31;;;;;;;1999.90;999.90;;;9.90;99.90;;;;;;4992358;28;20096;-81
2022/11/10 03:41:57;;;;;;;1999.90;999.90;;;9.80;99.90;;;;;;4975211;28;20045;-81
2022/11/10 03:44:23;;;;;;;1999.90;999.90;;;9.80;99.90;;;;;;4983885;28;20044;-81
2022/11/10 03:46:48;;;;;;;1999.90;999.90;;;9.80;99.90;;;;;;5011714;28;20033;-81
2022/11/10 03:49:14;;;;;;;1999.90;999.90;;;9.80;99.90;;;;;;5012185;28;20030;-81
2022/11/10 03:51:40;;;;;;;1999.90;999.90;;;9.80;99.90;;;;;;5015720;28;20022;-81
2022/11/10 03:54:06;;;;;;;1999.90;999.90;;;9.80;99.90;;;;;;5015964;28;20428;-81
2022/11/10 03:56:31;;;;;;;1999.90;999.90;;;9.80;99.90;;;;;;4998162;28;20057;-81
2022/11/10 03:58:57;;;;;;;1999.90;999.90;;;9.90;99.90;;;;;;4997187;28;20076;-81
2022/11/10 04:01:22;;;;;;;1999.90;999.90;;;9.90;99.90;;;;;;5015535;28;20026;-81
2022/11/10 04:03:49;;;;;;;1999.90;999.90;;;9.90;99.90;;;;;;5015507;28;20538;-80
2022/11/10 04:08:59;;;;;;;1999.90;999.90;;;9.90;99.90;;;;;;5015482;28;20107;-81
2022/11/10 04:16:54;;;;;;;1999.90;999.90;;;10.00;99.90;;;;;;5014074;28;20112;-83
2022/11/10 04:19:20;;;;;;;1999.90;999.90;;;10.00;99.90;;;;;;5014795;28;20564;-83
2022/11/10 04:21:46;;;;;;;1999.90;999.90;;;10.00;99.90;;;;;;5014741;28;20096;-83
2022/11/10 04:24:11;;;;;;;1999.90;999.90;;;10.00;99.90;;;;;;5015329;28;20477;-83
2022/11/10 04:26:39;;;;;;;1999.90;999.90;;;10.00;99.90;;;;;;4997819;28;20018;-83
2022/11/10 04:29:10;;;;;;;1999.90;999.90;;;9.90;99.90;;;;;;5014981;28;20022;-83
2022/11/10 04:31:38;;;;;;;1999.90;999.90;;;10.00;99.90;;;;;;5014958;28;20022;-83
2022/11/10 04:34:05;;;;;;;1999.90;999.90;;;10.00;99.90;;;;;;4997509;28;20056;-83
2022/11/10 04:36:33;;;;;;;1999.90;999.90;;;10.00;99.90;;;;;;4997267;28;20467;-83
2022/11/10 04:38:59;;;;;;;1999.90;999.90;;;10.00;99.90;;;;;;5014450;28;20030;-83
2022/11/10 04:41:26;;;;;;;1999.90;999.90;;;10.00;99.90;;;;;;5014983;28;20030;-83
2022/11/10 04:43:52;;;;;;;1999.90;999.90;;;10.00;99.90;;;;;;5014748;28;20053;-83
2022/11/10 04:46:26;;;;;;;1999.90;999.90;;;10.00;99.90;;;;;;4997346;28;20523;-83
2022/11/10 04:48:53;;;;;;;1999.90;999.90;;;10.10;99.90;;;;;;5014289;28;20038;-83
2022/11/10 04:51:20;;;;;;;1999.90;999.90;;;10.10;99.90;;;;;;5014923;28;20445;-83
2022/11/10 04:53:46;;;;;;;1999.90;999.90;;;10.10;99.90;;;;;;5014494;28;20132;-83
2022/11/10 04:56:16;;;;;;;1999.90;999.90;;;10.10;99.90;;;;;;4997187;28;20444;-83
2022/11/10 04:58:43;;;;;;;1999.90;999.90;;;10.10;99.90;;;;;;5014303;28;20060;-83
2022/11/10 05:01:18;;;;;;;1999.90;999.90;;;10.00;99.90;;;;;;4995918;28;20122;-83
2022/11/10 05:03:44;;;;;;;1999.90;999.90;;;10.00;99.90;;;;;;5014304;28;20034;-83
2022/11/10 05:06:10;;;;;;;1999.90;999.90;;;9.90;99.90;;;;;;4996985;28;20022;-83
2022/11/10 05:08:39;;;;;;;1999.90;999.90;;;9.90;99.90;;;;;;4996158;28;20199;-83
2022/11/10 05:11:05;;;;;;;1999.90;999.90;;;9.80;99.90;;;;;;5014416;28;20474;-83
2022/11/10 05:13:31;;;;;;;1999.90;999.90;;;9.80;99.90;;;;;;4996332;28;20033;-83
2022/11/10 05:15:57;;;;;;;1999.90;999.90;;;9.70;99.90;;;;;;4996933;28;20036;-83
2022/11/10 05:18:23;;;;;;;1999.90;999.90;;;9.70;99.90;;;;;;5014570;28;20116;-83
2022/11/10 05:20:49;;;;;;;1999.90;999.90;;;9.70;99.90;;;;;;4996463;28;20409;-83
2022/11/10 05:25:59;;;;;;;1999.90;999.90;;;9.60;99.90;;;;;;5014131;28;20052;-83
2022/11/10 05:28:24;;;;;;;1999.90;999.90;;;9.50;99.90;;;;;;5014548;28;20026;-83
2022/11/10 05:30:50;;;;;;;1999.90;999.90;;;9.50;99.90;;;;;;5014018;28;20029;-83
2022/11/10 05:33:15;;;;;;;1999.90;999.90;;;9.50;99.90;;;;;;5013583;28;20038;-83
2022/11/10 05:35:42;;;;;;;1999.90;999.90;;;9.50;99.90;;;;;;5013701;28;20044;-83
2022/11/10 05:38:08;;;;;;;1999.90;999.90;;;9.50;99.90;;;;;;5013866;28;20036;-83
2022/11/10 05:40:34;;;;;;;1999.90;999.90;;;9.50;99.90;;;;;;5013691;28;20452;-83
2022/11/10 05:43:00;;;;;;;1999.90;999.90;;;9.40;99.90;;;;;;4996126;28;20091;-83
2022/11/10 05:45:28;;;;;;;1999.90;999.90;;;9.40;99.90;;;;;;4995941;28;20489;-83
2022/11/10 05:47:54;;;;;;;1999.90;999.90;;;9.30;99.90;;;;;;5013436;28;20022;-83
2022/11/10 05:50:21;;;;;;;1999.90;999.90;;;9.40;99.90;;;;;;5013863;28;20454;-83
2022/11/10 05:52:49;;;;;;;1999.90;999.90;;;9.40;99.90;;;;;;5013315;28;20025;-82
2022/11/10 05:55:16;;;;;;;1999.90;999.90;;;9.40;99.90;;;;;;5011832;28;20046;-81
2022/11/10 05:57:43;;;;;;;1999.90;999.90;;;9.30;99.90;;;;;;5016583;28;20025;-81
2022/11/10 06:00:10;;;;;;;1999.90;999.90;;;9.30;99.90;;;;;;5032943;28;20053;-81
2022/11/10 06:02:36;;;;;;;1999.90;999.90;;;9.30;99.90;;;;;;5014739;28;20030;-81
2022/11/10 06:05:01;;;;;;;1999.90;999.90;;;9.30;99.90;;;;;;5032988;28;20026;-81
2022/11/10 06:07:27;;;;;;;1999.90;999.90;;;9.10;99.90;;;;;;5017939;28;20022;-79
2022/11/10 06:09:52;;;;;;;1999.90;999.90;;;9.10;99.90;;;;;;5013159;28;20036;-82
2022/11/10 06:12:18;;;;;;;1999.90;999.90;;;9.10;99.90;;;;;;5012350;28;20037;-79
2022/11/10 06:14:44;;;;;;;1999.90;999.90;;;9.10;99.90;;;;;;4995468;28;20541;-82
2022/11/10 06:17:10;;;;;;;1999.90;999.90;;;9.10;99.90;;;;;;5013257;28;20053;-79
2022/11/10 06:19:36;;;;;;;1999.90;999.90;;;9.10;99.90;;;;;;5012824;28;20105;-81
2022/11/10 06:22:02;;;;;;;1999.90;999.90;;;9.00;99.90;;;;;;5012732;28;20033;-82
2022/11/10 06:24:27;;;;;;;1999.90;999.90;;;9.00;99.90;;;;;;4995129;28;20061;-82
2022/11/10 06:26:53;;;;;;;1999.90;999.90;;;9.00;99.90;;;;;;5012855;28;20026;-82
2022/11/10 06:29:18;;;;;;;1999.90;999.90;;;9.00;99.90;;;;;;5012758;28;20499;-82
2022/11/10 06:31:44;;;;;;;1999.90;999.90;;;9.00;99.90;;;;;;5012786;28;20057;-82
2022/11/10 06:34:09;;;;;;;1999.90;999.90;;;8.90;99.90;;;;;;4999839;28;20034;-82
2022/11/10 06:36:35;;;;;;;1999.90;999.90;;;8.90;99.90;;;;;;5005406;28;20039;-82
2022/11/10 06:39:01;;;;;;;1999.90;999.90;;;8.90;99.90;;;;;;5012186;28;20509;-82
2022/11/10 06:41:26;;;;;;;1999.90;999.90;;;8.80;99.90;;;;;;4992588;28;20143;-82
2022/11/10 06:43:52;;;;;;;1999.90;999.90;;;8.80;99.90;;;;;;5009123;28;20041;-82
2022/11/10 06:46:18;;;;;;;1999.90;999.90;;;8.70;99.90;;;;;;5009993;28;20018;-82
2022/11/10 06:48:43;;;;;;;1999.90;999.90;;;8.70;99.90;;;;;;5011134;28;20035;-82
2022/11/10 06:51:09;;;;;;;1999.90;999.90;;;8.70;99.90;;;;;;5012394;28;20022;-85
2022/11/10 06:53:34;;;;;;;1999.90;999.90;;;8.70;99.90;;;;;;5017998;28;20563;-79
2022/11/10 06:56:00;;;;;;;1999.90;999.90;;;8.70;99.90;;;;;;5012372;28;20068;-79
2022/11/10 06:58:26;;;;;;;1999.90;999.90;;;8.70;99.90;;;;;;5011525;28;20488;-79
2022/11/10 07:00:51;;;;;;;1999.90;999.90;;;8.70;99.90;;;;;;5010460;28;20025;-79
2022/11/10 07:03:17;;;;;;;1999.90;999.90;;;8.70;99.90;;;;;;5010681;28;20088;-80
2022/11/10 07:05:43;;;;;;;1999.90;999.90;;;8.70;99.90;;;;;;5016911;28;20500;-80
2022/11/10 07:08:17;;;;;;;1999.90;999.90;;;8.70;99.90;;;;;;5028424;28;20025;-80
2022/11/10 07:10:43;;;;;;;1999.90;999.90;;;8.70;99.90;;;;;;4993808;28;20489;-79
2022/11/10 07:13:10;;;;;;;1999.90;999.90;;;8.70;99.90;;;;;;5009422;28;20026;-79
2022/11/10 07:15:36;;;;;;;1999.90;999.90;;;8.70;99.90;;;;;;5009110;28;20116;-80
2022/11/10 07:18:03;;;;;;;1999.90;999.90;;;8.70;99.90;;;;;;5001482;28;20026;-81
2022/11/10 07:20:29;;;;;;;1999.90;999.90;;;8.70;99.90;;;;;;4989991;28;20053;-81
2022/11/10 07:23:00;;;;;;;1999.90;999.90;;;8.60;99.90;;;;;;5009787;28;20034;-81
2022/11/10 07:25:26;;;;;;;1999.90;999.90;;;8.60;99.90;;;;;;4999975;28;20025;-80
2022/11/10 07:28:04;;;;;;;1999.90;999.90;;;8.60;99.90;;;;;;4998147;28;20396;-81
2022/11/10 07:30:31;;;;;;;1999.90;999.90;;;8.70;99.90;;;;;;5012852;28;20109;-81
2022/11/10 07:33:17;;;;;;;1999.90;999.90;;;8.70;99.90;;;;;;5010802;28;20108;-80
2022/11/10 07:35:49;;;;;;;1999.90;999.90;;;8.70;99.90;;;;;;4996026;28;20448;-80
2022/11/10 07:38:15;;;;;;;1999.90;999.90;;;8.70;99.90;;;;;;5000493;28;20515;-80
2022/11/10 07:40:40;;;;;;;1999.90;999.90;;;8.70;99.90;;;;;;5013817;28;20033;-83
2022/11/10 07:43:06;;;;;;;1999.90;999.90;;;8.80;99.90;;;;;;5011358;28;20037;-84
2022/11/10 07:45:32;;;;;;;1999.90;999.90;;;8.90;99.90;;;;;;4997984;28;20112;-84
2022/11/10 07:48:03;;;;;;;1999.90;999.90;;;8.90;99.90;;;;;;4996398;28;20022;-83
2022/11/10 07:50:30;;;;;;;1999.90;999.90;;;8.90;99.90;;;;;;5011449;28;20037;-81
2022/11/10 07:53:08;;;;;;;1999.90;999.90;;;9.00;99.90;;;;;;5011507;28;20036;-82
2022/11/10 07:55:35;;;;;;;1999.90;999.90;;;9.00;99.90;;;;;;5011776;28;20128;-81
2022/11/10 07:58:01;;;;;;;1999.90;999.90;;;9.10;99.90;;;;;;5013290;28;20079;-81
2022/11/10 08:00:26;;;;;;;1999.90;999.90;;;9.20;99.90;;;;;;5013456;28;20493;-81
2022/11/10 08:02:52;;;;;;;1999.90;999.90;;;9.20;99.90;;;;;;5011769;28;20451;-82
2022/11/10 08:05:18;;;;;;;1999.90;999.90;;;9.30;99.90;;;;;;5011564;28;20038;-81
2022/11/10 08:07:44;;;;;;;1999.90;999.90;;;9.40;99.90;;;;;;5012889;28;20057;-80
2022/11/10 08:10:09;;;;;;;1999.90;999.90;;;9.50;99.90;;;;;;5013322;28;20061;-82
2022/11/10 08:12:35;;;;;;;1999.90;999.90;;;9.50;99.90;;;;;;5003830;28;20022;-83
2022/11/10 08:15:02;;;;;;;1999.90;999.90;;;9.50;99.90;;;;;;5012732;28;20445;-84
2022/11/10 08:17:27;;;;;;;1999.90;999.90;;;9.60;99.90;;;;;;5011742;28;20109;-83
2022/11/10 08:19:53;;;;;;;1999.90;999.90;;;9.60;99.90;;;;;;4997514;28;20117;-80
2022/11/10 08:22:18;;;;;;;1999.90;999.90;;;9.70;99.90;;;;;;4996877;28;20026;-81
2022/11/10 08:24:44;;;;;;;1999.90;999.90;;;9.70;99.90;;;;;;5016498;28;20025;-81
2022/11/10 08:27:10;;;;;;;1999.90;999.90;;;9.80;99.90;;;;;;5011627;28;20580;-81
2022/11/10 08:29:35;;;;;;;1999.90;999.90;;;9.90;99.90;;;;;;5011321;28;20036;-81
2022/11/10 08:32:01;;;;;;;1999.90;999.90;;;10.00;99.90;;;;;;5011867;28;20026;-82
2022/11/10 08:34:26;;;;;;;1999.90;999.90;;;10.00;99.90;;;;;;5011064;28;20038;-81
2022/11/10 08:36:52;;;;;;;1999.90;999.90;;;10.20;99.90;;;;;;5010488;28;20053;-82
2022/11/10 08:39:18;;;;;;;1999.90;999.90;;;10.30;99.90;;;;;;5000803;28;20064;-81
2022/11/10 08:41:44;;;;;;;1999.90;999.90;;;10.40;99.90;;;;;;5020042;28;20037;-81
2022/11/10 08:44:09;;;;;;;1999.90;999.90;;;10.50;99.90;;;;;;5020486;28;20040;-80
2022/11/10 08:46:35;;;;;;;1999.90;999.90;;;10.60;99.90;;;;;;5000195;28;20030;-81
2022/11/10 08:49:01;;;;;;;1999.90;999.90;;;10.70;99.90;;;;;;5008670;28;20033;-80
2022/11/10 08:51:26;;;;;;;1999.90;999.90;;;10.90;99.90;;;;;;5011647;28;20396;-80
2022/11/10 08:53:52;;;;;;;1999.90;999.90;;;11.00;99.90;;;;;;4993804;28;20049;-81
2022/11/10 08:56:17;;;;;;;1999.90;999.90;;;11.00;99.90;;;;;;5012794;28;20078;-81
2022/11/10 08:58:43;;;;;;;1999.90;999.90;;;11.10;99.90;;;;;;5011917;28;20429;-80
2022/11/10 09:01:10;;;;;;;1999.90;999.90;;;11.20;99.90;;;;;;5010573;28;20025;-81
2022/11/10 09:03:36;;;;;;;1999.90;999.90;;;11.20;99.90;;;;;;5003329;28;20498;-82
2022/11/10 09:06:02;;;;;;;1999.90;999.90;;;11.30;99.90;;;;;;5013606;28;20018;-80
2022/11/10 09:08:32;;;;;;;1999.90;999.90;;;11.40;99.90;;;;;;5011759;28;20030;-81
2022/11/10 09:11:01;;;;;;;1999.90;999.90;;;11.50;99.90;;;;;;5008283;28;20014;-81
2022/11/10 09:13:27;;;;;;;1999.90;999.90;;;11.60;99.90;;;;;;5010946;28;20536;-80
2022/11/10 09:15:52;;;;;;;1999.90;999.90;;;11.60;99.90;;;;;;5003264;28;20046;-84
2022/11/10 09:18:18;;;;;;;1999.90;999.90;;;11.60;99.90;;;;;;5009692;28;20065;-81
2022/11/10 09:20:43;;;;;;;1999.90;999.90;;;11.60;99.90;;;;;;5011474;28;20025;-80
2022/11/10 09:23:15;;;;;;;1999.90;999.90;;;11.80;99.90;;;;;;5009683;28;20550;-80
2022/11/10 09:25:41;;;;;;;1999.90;999.90;;;11.90;99.90;;;;;;5009128;28;20396;-80
2022/11/10 09:28:14;;;;;;;1999.90;999.90;;;12.00;99.90;;;;;;5009817;28;20049;-81
2022/11/10 09:30:40;;;;;;;1999.90;999.90;;;12.10;99.90;;;;;;5011133;28;20485;-80
2022/11/10 09:33:06;;;;;;;1999.90;999.90;;;12.20;99.90;;;;;;5010325;28;20080;-81
2022/11/10 09:35:32;;;;;;;1999.90;999.90;;;12.30;99.90;;;;;;5011073;28;20026;-80
2022/11/10 09:37:57;;;;;;;1999.90;999.90;;;12.40;99.90;;;;;;5013324;28;20042;-81
2022/11/10 09:40:49;;;;;;;1999.90;999.90;;;12.50;99.90;;;;;;5012861;28;20041;-81
2022/11/10 09:43:26;;;;;;;1999.90;999.90;;;12.40;99.90;;;;;;4999520;28;20096;-80
2022/11/10 09:45:56;;;;;;;1999.90;999.90;;;12.60;99.90;;;;;;5008261;28;20129;-80
2022/11/10 09:48:27;;;;;;;1999.90;999.90;;;12.60;99.90;;;;;;5009594;28;20029;-80
2022/11/10 09:51:10;;;;;;;1999.90;999.90;;;12.70;99.90;;;;;;5009893;28;20033;-81
2022/11/10 09:53:45;;;;;;;1999.90;999.90;;;12.80;99.90;;;;;;5008637;28;20080;-79
2022/11/10 09:56:18;;;;;;;1999.90;999.90;;;13.00;99.90;;;;;;5009388;28;20092;-79
2022/11/10 09:58:45;;;;;;;1999.90;999.90;;;13.00;99.90;;;;;;5011428;28;20044;-80
2022/11/10 10:01:26;;;;;;;1999.90;999.90;;;13.20;99.90;;;;;;5013596;28;20018;-80
2022/11/10 10:04:14;;;;;;;1999.90;999.90;;;13.20;99.90;;;;;;5014918;28;20096;-80
2022/11/10 10:07:09;;;;;;;1999.90;999.90;;;13.20;99.90;;;;;;5016859;28;20018;-81
2022/11/10 10:09:58;;;;;;;1999.90;999.90;;;13.20;99.90;;;;;;5011471;28;20045;-80
2022/11/10 10:12:43;;;;;;;1999.90;999.90;;;13.30;99.90;;;;;;5008382;28;20033;-81
2022/11/10 10:15:14;;;;;;;1999.90;999.90;;;13.40;99.90;;;;;;5010769;28;20040;-81
2022/11/10 10:18:05;;;;;;;1999.90;999.90;;;13.40;99.90;;;;;;5012193;28;20053;-81
2022/11/10 10:20:55;;;;;;;1999.90;999.90;;;13.50;99.90;;;;;;5006370;28;20040;-80
2022/11/10 10:23:32;;;;;;;1999.90;999.90;;;13.70;99.90;;;;;;5014433;28;20026;-80
2022/11/10 10:25:58;;;;;;;1999.90;999.90;;;13.80;99.90;;;;;;4992399;28;20026;-80
2022/11/10 10:28:48;;;;;;;1999.90;999.90;;;14.00;99.90;;;;;;5010446;28;20026;-80
2022/11/10 10:31:24;;;;;;;1999.90;999.90;;;14.00;99.90;;;;;;5003535;28;20034;-80
2022/11/10 10:33:51;;;;;;;1999.90;999.90;;;14.10;99.90;;;;;;5017060;28;20466;-81
2022/11/10 10:36:28;;;;;;;1999.90;999.90;;;14.20;99.90;;;;;;4995033;28;20064;-80
2022/11/10 10:39:26;;;;;;;1999.90;999.90;;;14.30;99.90;;;;;;5009639;28;20030;-80
2022/11/10 10:41:52;;;;;;;1999.90;999.90;;;14.40;99.90;;;;;;4975794;28;20489;-81
2022/11/10 10:44:18;;;;;;;1999.90;999.90;;;14.40;99.90;;;;;;5007536;28;20032;-82
2022/11/10 10:46:49;;;;;;;1999.90;999.90;;;14.40;99.90;;;;;;4999981;28;20077;-82
2022/11/10 10:49:24;;;;;;;1999.90;999.90;;;14.60;99.90;;;;;;5007101;28;20034;-82
2022/11/10 10:52:23;;;;;;;1999.90;999.90;;;14.70;99.90;;;;;;4991978;28;20176;-81
2022/11/10 10:54:59;;;;;;;1999.90;999.90;;;14.80;99.90;;;;;;5008250;28;20049;-83
2022/11/10 10:57:30;;;;;;;1999.90;999.90;;;15.00;99.90;;;;;;5010079;28;20036;-81
2022/11/10 11:00:17;;;;;;;1999.90;999.90;;;15.10;99.90;;;;;;5010147;28;20099;-82
2022/11/10 11:02:43;;;;;;;1999.90;999.90;;;15.20;99.90;;;;;;5010002;28;20026;-81
2022/11/10 11:05:19;;;;;;;1999.90;999.90;;;15.30;99.90;;;;;;5010145;28;20041;-81
2022/11/10 11:07:56;;;;;;;1999.90;999.90;;;15.40;99.90;;;;;;4991819;28;20026;-81
2022/11/10 11:10:27;;;;;;;1999.90;999.90;;;15.40;99.90;;;;;;5006639;28;20040;-80
2022/11/10 11:12:52;;;;;;;1999.90;999.90;;;15.40;99.90;;;;;;5005025;28;20018;-80
2022/11/10 11:15:28;;;;;;;1999.90;999.90;;;15.50;99.90;;;;;;5009406;28;20398;-80
2022/11/10 11:17:59;;;;;;;1999.90;999.90;;;15.50;99.90;;;;;;5007397;28;20030;-80
2022/11/10 11:20:57;;;;;;;1999.90;999.90;;;15.50;99.90;;;;;;5008289;28;20025;-80
2022/11/10 11:23:34;;;;;;;1999.90;999.90;;;15.60;99.90;;;;;;4981809;28;20065;-80
2022/11/10 11:26:24;;;;;;;1999.90;999.90;;;15.50;99.90;;;;;;4986941;28;20099;-79
2022/11/10 11:29:21;;;;;;;1999.90;999.90;;;15.70;99.90;;;;;;5001441;28;20076;-81
2022/11/10 11:32:01;;;;;;;1999.90;999.90;;;15.90;99.90;;;;;;5005997;28;20057;-80
2022/11/10 11:34:55;;;;;;;1999.90;999.90;;;16.10;99.90;;;;;;5009881;28;20022;-80
2022/11/10 11:37:34;;;;;;;1999.90;999.90;;;16.20;99.90;;;;;;5001875;28;20061;-80
2022/11/10 11:40:23;;;;;;;1999.90;999.90;;;16.20;99.90;;;;;;5008991;28;20038;-80
2022/11/10 11:43:25;;;;;;;1999.90;999.90;;;16.20;99.90;;;;;;5003692;28;20516;-80
2022/11/10 11:46:26;;;;;;;1999.90;999.90;;;16.30;99.90;;;;;;5009794;28;20038;-81
2022/11/10 11:48:54;;;;;;;1999.90;999.90;;;16.20;99.90;;;;;;4948066;28;20026;-81
2022/11/10 11:51:22;;;;;;;1999.90;999.90;;;16.30;99.90;;;;;;4958307;28;20042;-80
2022/11/10 11:54:14;;;;;;;1999.90;999.90;;;16.30;99.90;;;;;;4952040;28;20055;-81
2022/11/10 11:56:45;;;;;;;1999.90;999.90;;;16.40;99.90;;;;;;4927292;28;20106;-81
2022/11/10 11:59:20;;;;;;;1999.90;999.90;;;16.40;99.90;;;;;;4952838;28;20122;-81
2022/11/10 12:02:17;;;;;;;1999.90;999.90;;;16.50;99.90;;;;;;4951306;28;20074;-81
2022/11/10 12:04:57;;;;;;;1999.90;999.90;;;16.60;99.90;;;;;;4942382;29;20126;-81
2022/11/10 12:07:54;;;;;;;1999.90;999.90;;;16.60;99.90;;;;;;4947961;29;20058;-81
2022/11/10 12:10:32;;;;;;;1999.90;999.90;;;16.70;99.90;;;;;;4931629;28;20553;-81
2022/11/10 12:13:24;;;;;;;1999.90;999.90;;;16.70;99.90;;;;;;4949403;28;20100;-80
2022/11/10 12:15:59;;;;;;;1999.90;999.90;;;16.90;99.90;;;;;;4953278;28;20042;-81
2022/11/10 12:18:31;;;;;;;1999.90;999.90;;;16.80;99.90;;;;;;4944559;28;20506;-81
2022/11/10 12:21:20;;;;;;;1999.90;999.90;;;17.00;99.90;;;;;;4955617;28;20030;-83
2022/11/10 12:24:13;;;;;;;1999.90;999.90;;;17.00;99.90;;;;;;5008333;28;20430;-82
2022/11/10 12:27:11;;;;;;;1999.90;999.90;;;17.00;99.90;;;;;;5023291;28;20048;-82
2022/11/10 12:29:40;;;;;;;1999.90;999.90;;;17.10;99.90;;;;;;5012858;28;20160;-83